sensor_id;sensor_type;location;lat;lon;timestamp;P1;durP1;ratioP1;P2;durP2;ratioP2
19776;SDS011;10047;42.490;26.012;2023-08-06T00:01:50;18.33;;;11.80;;
19776;SDS011;10047;42.490;26.012;2023-08-06T00:04:15;16.48;;;12.13;;
19776;SDS011;10047;42.490;26.012;2023-08-06T00:06:41;16.15;;;12.52;;
19776;SDS011;10047;42.490;26.012;2023-08-06T00:09:06;17.90;;;12.55;;
19776;SDS011;10047;42.490;26.012;2023-08-06T00:11:32;17.90;;;12.13;;
19776;SDS011;10047;42.490;26.012;2023-08-06T00:13:57;16.83;;;11.90;;
19776;SDS011;10047;42.490;26.012;2023-08-06T00:16:22;16.00;;;12.82;;
19776;SDS011;10047;42.490;26.012;2023-08-06T00:18:48;14.85;;;12.07;;
19776;SDS011;10047;42.490;26.012;2023-08-06T00:21:13;16.50;;;12.73;;
19776;SDS011;10047;42.490;26.012;2023-08-06T00:23:39;15.80;;;12.07;;
19776;SDS011;10047;42.490;26.012;2023-08-06T00:26:05;12.95;;;11.63;;
19776;SDS011;10047;42.490;26.012;2023-08-06T00:28:30;16.80;;;13.02;;
19776;SDS011;10047;42.490;26.012;2023-08-06T00:30:56;17.05;;;12.13;;
19776;SDS011;10047;42.490;26.012;2023-08-06T00:33:22;14.90;;;12.35;;
19776;SDS011;10047;42.490;26.012;2023-08-06T00:35:47;17.13;;;12.88;;
19776;SDS011;10047;42.490;26.012;2023-08-06T00:38:13;18.55;;;12.65;;
19776;SDS011;10047;42.490;26.012;2023-08-06T00:40:38;18.50;;;12.98;;
19776;SDS011;10047;42.490;26.012;2023-08-06T00:43:04;17.92;;;12.88;;
19776;SDS011;10047;42.490;26.012;2023-08-06T00:45:29;17.52;;;12.95;;
19776;SDS011;10047;42.490;26.012;2023-08-06T00:47:58;17.90;;;13.88;;
19776;SDS011;10047;42.490;26.012;2023-08-06T00:50:24;17.65;;;13.40;;
19776;SDS011;10047;42.490;26.012;2023-08-06T00:52:50;15.48;;;13.15;;
19776;SDS011;10047;42.490;26.012;2023-08-06T00:55:16;16.80;;;13.60;;
19776;SDS011;10047;42.490;26.012;2023-08-06T00:57:42;17.60;;;14.32;;
19776;SDS011;10047;42.490;26.012;2023-08-06T01:00:07;20.02;;;13.80;;
19776;SDS011;10047;42.490;26.012;2023-08-06T01:02:33;17.80;;;14.70;;
19776;SDS011;10047;42.490;26.012;2023-08-06T01:04:59;16.30;;;14.60;;
19776;SDS011;10047;42.490;26.012;2023-08-06T01:12:34;20.60;;;14.73;;
19776;SDS011;10047;42.490;26.012;2023-08-06T01:15:23;16.25;;;14.52;;
19776;SDS011;10047;42.490;26.012;2023-08-06T01:17:52;16.67;;;14.65;;
19776;SDS011;10047;42.490;26.012;2023-08-06T01:20:18;20.75;;;15.10;;
19776;SDS011;10047;42.490;26.012;2023-08-06T01:22:44;22.48;;;15.05;;
19776;SDS011;10047;42.490;26.012;2023-08-06T01:25:09;18.98;;;13.48;;
19776;SDS011;10047;42.490;26.012;2023-08-06T01:27:41;15.68;;;13.80;;
19776;SDS011;10047;42.490;26.012;2023-08-06T01:32:50;23.65;;;14.77;;
19776;SDS011;10047;42.490;26.012;2023-08-06T01:35:19;19.00;;;15.45;;
19776;SDS011;10047;42.490;26.012;2023-08-06T01:37:46;19.35;;;14.60;;
19776;SDS011;10047;42.490;26.012;2023-08-06T01:40:13;18.02;;;15.45;;
19776;SDS011;10047;42.490;26.012;2023-08-06T01:42:39;17.90;;;14.00;;
19776;SDS011;10047;42.490;26.012;2023-08-06T01:45:05;20.48;;;14.70;;
19776;SDS011;10047;42.490;26.012;2023-08-06T01:47:32;19.35;;;16.25;;
19776;SDS011;10047;42.490;26.012;2023-08-06T01:49:57;20.08;;;15.63;;
19776;SDS011;10047;42.490;26.012;2023-08-06T01:52:22;17.88;;;14.95;;
19776;SDS011;10047;42.490;26.012;2023-08-06T01:54:48;18.38;;;14.43;;
19776;SDS011;10047;42.490;26.012;2023-08-06T01:57:13;19.92;;;14.93;;
19776;SDS011;10047;42.490;26.012;2023-08-06T01:59:39;22.88;;;15.60;;
19776;SDS011;10047;42.490;26.012;2023-08-06T02:02:04;18.00;;;15.93;;
19776;SDS011;10047;42.490;26.012;2023-08-06T02:04:30;19.55;;;16.40;;
19776;SDS011;10047;42.490;26.012;2023-08-06T02:06:55;18.00;;;16.05;;
19776;SDS011;10047;42.490;26.012;2023-08-06T02:09:20;18.98;;;15.88;;
19776;SDS011;10047;42.490;26.012;2023-08-06T02:11:46;18.60;;;16.20;;
19776;SDS011;10047;42.490;26.012;2023-08-06T02:14:11;18.17;;;14.95;;
19776;SDS011;10047;42.490;26.012;2023-08-06T02:16:37;21.10;;;16.42;;
19776;SDS011;10047;42.490;26.012;2023-08-06T02:19:02;19.75;;;15.45;;
19776;SDS011;10047;42.490;26.012;2023-08-06T02:21:28;19.33;;;15.65;;
19776;SDS011;10047;42.490;26.012;2023-08-06T02:23:53;21.05;;;16.77;;
19776;SDS011;10047;42.490;26.012;2023-08-06T02:26:19;20.30;;;16.88;;
19776;SDS011;10047;42.490;26.012;2023-08-06T02:28:44;19.60;;;16.50;;
19776;SDS011;10047;42.490;26.012;2023-08-06T02:31:09;20.92;;;16.63;;
19776;SDS011;10047;42.490;26.012;2023-08-06T02:33:35;20.17;;;16.73;;
19776;SDS011;10047;42.490;26.012;2023-08-06T02:36:01;18.02;;;15.02;;
19776;SDS011;10047;42.490;26.012;2023-08-06T02:38:28;19.70;;;15.32;;
19776;SDS011;10047;42.490;26.012;2023-08-06T02:40:54;19.10;;;17.10;;
19776;SDS011;10047;42.490;26.012;2023-08-06T02:43:19;19.73;;;16.25;;
19776;SDS011;10047;42.490;26.012;2023-08-06T02:45:45;19.95;;;16.20;;
19776;SDS011;10047;42.490;26.012;2023-08-06T02:48:10;20.50;;;15.98;;
19776;SDS011;10047;42.490;26.012;2023-08-06T02:50:38;22.25;;;16.33;;
19776;SDS011;10047;42.490;26.012;2023-08-06T02:53:05;18.10;;;16.17;;
19776;SDS011;10047;42.490;26.012;2023-08-06T02:55:31;21.52;;;16.88;;
19776;SDS011;10047;42.490;26.012;2023-08-06T02:57:57;19.13;;;16.95;;
19776;SDS011;10047;42.490;26.012;2023-08-06T03:00:23;20.38;;;17.80;;
19776;SDS011;10047;42.490;26.012;2023-08-06T03:02:48;19.98;;;17.58;;
19776;SDS011;10047;42.490;26.012;2023-08-06T03:05:14;22.98;;;17.90;;
19776;SDS011;10047;42.490;26.012;2023-08-06T03:07:39;20.52;;;18.33;;
19776;SDS011;10047;42.490;26.012;2023-08-06T03:10:05;20.73;;;18.13;;
19776;SDS011;10047;42.490;26.012;2023-08-06T03:12:31;23.35;;;19.05;;
19776;SDS011;10047;42.490;26.012;2023-08-06T03:14:56;23.10;;;19.33;;
19776;SDS011;10047;42.490;26.012;2023-08-06T03:17:22;21.70;;;19.40;;
19776;SDS011;10047;42.490;26.012;2023-08-06T03:19:47;22.50;;;19.25;;
19776;SDS011;10047;42.490;26.012;2023-08-06T03:22:13;25.15;;;19.80;;
19776;SDS011;10047;42.490;26.012;2023-08-06T03:24:38;20.35;;;18.15;;
19776;SDS011;10047;42.490;26.012;2023-08-06T03:27:03;23.83;;;19.33;;
19776;SDS011;10047;42.490;26.012;2023-08-06T03:29:29;22.17;;;18.77;;
19776;SDS011;10047;42.490;26.012;2023-08-06T03:31:54;22.60;;;18.70;;
19776;SDS011;10047;42.490;26.012;2023-08-06T03:34:20;20.10;;;17.63;;
19776;SDS011;10047;42.490;26.012;2023-08-06T03:36:45;18.65;;;16.70;;
19776;SDS011;10047;42.490;26.012;2023-08-06T03:39:11;23.88;;;17.73;;
19776;SDS011;10047;42.490;26.012;2023-08-06T03:41:36;20.05;;;17.98;;
19776;SDS011;10047;42.490;26.012;2023-08-06T03:44:01;20.45;;;18.38;;
19776;SDS011;10047;42.490;26.012;2023-08-06T03:46:29;21.65;;;17.48;;
19776;SDS011;10047;42.490;26.012;2023-08-06T03:48:54;19.65;;;17.48;;
19776;SDS011;10047;42.490;26.012;2023-08-06T03:51:20;20.50;;;16.83;;
19776;SDS011;10047;42.490;26.012;2023-08-06T03:53:45;18.35;;;16.25;;
19776;SDS011;10047;42.490;26.012;2023-08-06T03:56:10;21.80;;;17.70;;
19776;SDS011;10047;42.490;26.012;2023-08-06T03:58:36;19.45;;;16.98;;
19776;SDS011;10047;42.490;26.012;2023-08-06T04:01:02;21.23;;;17.08;;
19776;SDS011;10047;42.490;26.012;2023-08-06T04:03:28;19.67;;;17.58;;
19776;SDS011;10047;42.490;26.012;2023-08-06T04:05:53;18.52;;;16.63;;
19776;SDS011;10047;42.490;26.012;2023-08-06T04:08:19;21.17;;;18.50;;
19776;SDS011;10047;42.490;26.012;2023-08-06T04:10:45;22.10;;;18.45;;
19776;SDS011;10047;42.490;26.012;2023-08-06T04:13:10;19.67;;;17.65;;
19776;SDS011;10047;42.490;26.012;2023-08-06T04:15:36;24.77;;;18.63;;
19776;SDS011;10047;42.490;26.012;2023-08-06T04:18:01;22.67;;;19.30;;
19776;SDS011;10047;42.490;26.012;2023-08-06T04:20:26;20.70;;;17.30;;
19776;SDS011;10047;42.490;26.012;2023-08-06T04:22:54;23.40;;;17.80;;
19776;SDS011;10047;42.490;26.012;2023-08-06T04:25:19;20.05;;;17.90;;
19776;SDS011;10047;42.490;26.012;2023-08-06T04:27:49;22.65;;;16.88;;
19776;SDS011;10047;42.490;26.012;2023-08-06T04:30:14;23.17;;;18.48;;
19776;SDS011;10047;42.490;26.012;2023-08-06T04:32:40;19.48;;;17.33;;
19776;SDS011;10047;42.490;26.012;2023-08-06T04:35:06;19.30;;;17.30;;
19776;SDS011;10047;42.490;26.012;2023-08-06T04:37:31;20.70;;;17.80;;
19776;SDS011;10047;42.490;26.012;2023-08-06T04:39:57;19.90;;;17.90;;
19776;SDS011;10047;42.490;26.012;2023-08-06T04:42:22;18.30;;;14.38;;
19776;SDS011;10047;42.490;26.012;2023-08-06T04:44:47;19.02;;;17.13;;
19776;SDS011;10047;42.490;26.012;2023-08-06T04:47:13;26.33;;;19.08;;
19776;SDS011;10047;42.490;26.012;2023-08-06T04:49:38;21.10;;;18.80;;
19776;SDS011;10047;42.490;26.012;2023-08-06T04:52:04;27.17;;;21.10;;
19776;SDS011;10047;42.490;26.012;2023-08-06T04:54:29;25.52;;;20.48;;
19776;SDS011;10047;42.490;26.012;2023-08-06T04:56:55;29.27;;;20.75;;
19776;SDS011;10047;42.490;26.012;2023-08-06T04:59:22;20.15;;;17.75;;
19776;SDS011;10047;42.490;26.012;2023-08-06T05:01:47;25.45;;;18.23;;
19776;SDS011;10047;42.490;26.012;2023-08-06T05:04:12;26.80;;;20.17;;
19776;SDS011;10047;42.490;26.012;2023-08-06T05:06:38;18.50;;;16.33;;
19776;SDS011;10047;42.490;26.012;2023-08-06T05:09:03;21.10;;;16.38;;
19776;SDS011;10047;42.490;26.012;2023-08-06T05:11:30;18.52;;;14.65;;
19776;SDS011;10047;42.490;26.012;2023-08-06T05:13:55;17.48;;;14.73;;
19776;SDS011;10047;42.490;26.012;2023-08-06T05:16:20;22.23;;;14.70;;
19776;SDS011;10047;42.490;26.012;2023-08-06T05:18:46;16.35;;;13.93;;
19776;SDS011;10047;42.490;26.012;2023-08-06T05:21:11;17.27;;;14.00;;
19776;SDS011;10047;42.490;26.012;2023-08-06T05:23:37;15.45;;;13.60;;
19776;SDS011;10047;42.490;26.012;2023-08-06T05:26:02;14.82;;;13.32;;
19776;SDS011;10047;42.490;26.012;2023-08-06T05:28:27;18.27;;;12.85;;
19776;SDS011;10047;42.490;26.012;2023-08-06T05:30:53;18.55;;;13.32;;
19776;SDS011;10047;42.490;26.012;2023-08-06T05:33:18;16.25;;;12.85;;
19776;SDS011;10047;42.490;26.012;2023-08-06T05:35:44;18.00;;;12.50;;
19776;SDS011;10047;42.490;26.012;2023-08-06T05:38:09;15.10;;;12.43;;
19776;SDS011;10047;42.490;26.012;2023-08-06T05:40:34;16.40;;;12.20;;
19776;SDS011;10047;42.490;26.012;2023-08-06T05:43:00;15.20;;;12.60;;
19776;SDS011;10047;42.490;26.012;2023-08-06T05:45:26;14.82;;;11.50;;
19776;SDS011;10047;42.490;26.012;2023-08-06T05:47:51;17.17;;;11.57;;
19776;SDS011;10047;42.490;26.012;2023-08-06T05:50:18;16.55;;;11.65;;
19776;SDS011;10047;42.490;26.012;2023-08-06T05:52:44;15.95;;;11.27;;
19776;SDS011;10047;42.490;26.012;2023-08-06T05:55:09;14.68;;;11.50;;
19776;SDS011;10047;42.490;26.012;2023-08-06T05:57:35;15.23;;;11.75;;
19776;SDS011;10047;42.490;26.012;2023-08-06T06:00:01;13.10;;;11.40;;
19776;SDS011;10047;42.490;26.012;2023-08-06T06:02:27;13.55;;;11.77;;
19776;SDS011;10047;42.490;26.012;2023-08-06T06:04:53;15.27;;;11.32;;
19776;SDS011;10047;42.490;26.012;2023-08-06T06:07:20;16.23;;;11.82;;
19776;SDS011;10047;42.490;26.012;2023-08-06T06:09:45;14.70;;;10.73;;
19776;SDS011;10047;42.490;26.012;2023-08-06T06:12:10;13.63;;;10.88;;
19776;SDS011;10047;42.490;26.012;2023-08-06T06:14:36;14.13;;;11.18;;
19776;SDS011;10047;42.490;26.012;2023-08-06T06:17:01;14.35;;;10.95;;
19776;SDS011;10047;42.490;26.012;2023-08-06T06:19:27;14.32;;;10.85;;
19776;SDS011;10047;42.490;26.012;2023-08-06T06:21:52;11.23;;;10.02;;
19776;SDS011;10047;42.490;26.012;2023-08-06T06:24:18;13.85;;;9.82;;
19776;SDS011;10047;42.490;26.012;2023-08-06T06:26:43;14.40;;;10.35;;
19776;SDS011;10047;42.490;26.012;2023-08-06T06:29:09;12.43;;;10.65;;
19776;SDS011;10047;42.490;26.012;2023-08-06T06:31:34;12.35;;;9.20;;
19776;SDS011;10047;42.490;26.012;2023-08-06T06:34:00;11.13;;;9.05;;
19776;SDS011;10047;42.490;26.012;2023-08-06T06:36:26;12.10;;;8.93;;
19776;SDS011;10047;42.490;26.012;2023-08-06T06:38:51;16.20;;;10.50;;
19776;SDS011;10047;42.490;26.012;2023-08-06T06:41:16;13.18;;;8.60;;
19776;SDS011;10047;42.490;26.012;2023-08-06T06:43:42;12.27;;;9.23;;
19776;SDS011;10047;42.490;26.012;2023-08-06T06:46:07;12.35;;;8.43;;
19776;SDS011;10047;42.490;26.012;2023-08-06T06:48:33;12.73;;;9.25;;
19776;SDS011;10047;42.490;26.012;2023-08-06T06:50:59;13.25;;;9.05;;
19776;SDS011;10047;42.490;26.012;2023-08-06T06:53:24;13.15;;;8.93;;
19776;SDS011;10047;42.490;26.012;2023-08-06T06:55:53;12.50;;;8.43;;
19776;SDS011;10047;42.490;26.012;2023-08-06T06:58:19;13.10;;;9.70;;
19776;SDS011;10047;42.490;26.012;2023-08-06T07:00:45;14.05;;;8.63;;
19776;SDS011;10047;42.490;26.012;2023-08-06T07:03:12;10.63;;;8.43;;
19776;SDS011;10047;42.490;26.012;2023-08-06T07:05:37;10.32;;;8.82;;
19776;SDS011;10047;42.490;26.012;2023-08-06T07:08:02;11.43;;;8.73;;
19776;SDS011;10047;42.490;26.012;2023-08-06T07:10:28;11.63;;;8.80;;
19776;SDS011;10047;42.490;26.012;2023-08-06T07:12:53;11.93;;;9.15;;
19776;SDS011;10047;42.490;26.012;2023-08-06T07:15:19;10.95;;;8.75;;
19776;SDS011;10047;42.490;26.012;2023-08-06T07:17:45;14.35;;;9.52;;
19776;SDS011;10047;42.490;26.012;2023-08-06T07:20:10;14.88;;;9.30;;
19776;SDS011;10047;42.490;26.012;2023-08-06T07:22:36;12.85;;;9.35;;
19776;SDS011;10047;42.490;26.012;2023-08-06T07:25:01;12.13;;;9.57;;
19776;SDS011;10047;42.490;26.012;2023-08-06T07:27:27;11.80;;;9.48;;
19776;SDS011;10047;42.490;26.012;2023-08-06T07:29:52;14.20;;;9.43;;
19776;SDS011;10047;42.490;26.012;2023-08-06T07:32:18;13.45;;;9.55;;
19776;SDS011;10047;42.490;26.012;2023-08-06T07:34:43;10.85;;;9.30;;
19776;SDS011;10047;42.490;26.012;2023-08-06T07:37:09;11.02;;;9.40;;
19776;SDS011;10047;42.490;26.012;2023-08-06T07:39:34;13.43;;;10.02;;
19776;SDS011;10047;42.490;26.012;2023-08-06T07:42:00;13.35;;;9.73;;
19776;SDS011;10047;42.490;26.012;2023-08-06T07:44:27;13.00;;;10.70;;
19776;SDS011;10047;42.490;26.012;2023-08-06T07:46:52;10.88;;;9.82;;
19776;SDS011;10047;42.490;26.012;2023-08-06T07:49:18;12.98;;;9.88;;
19776;SDS011;10047;42.490;26.012;2023-08-06T07:51:43;14.05;;;9.82;;
19776;SDS011;10047;42.490;26.012;2023-08-06T07:54:09;12.63;;;9.93;;
19776;SDS011;10047;42.490;26.012;2023-08-06T07:56:34;12.52;;;9.85;;
19776;SDS011;10047;42.490;26.012;2023-08-06T07:59:01;11.00;;;9.77;;
19776;SDS011;10047;42.490;26.012;2023-08-06T08:01:27;11.65;;;9.93;;
19776;SDS011;10047;42.490;26.012;2023-08-06T08:03:52;12.30;;;9.85;;
19776;SDS011;10047;42.490;26.012;2023-08-06T08:06:18;15.68;;;10.45;;
19776;SDS011;10047;42.490;26.012;2023-08-06T08:08:43;12.18;;;10.25;;
19776;SDS011;10047;42.490;26.012;2023-08-06T08:11:08;12.02;;;9.55;;
19776;SDS011;10047;42.490;26.012;2023-08-06T08:13:34;11.27;;;9.82;;
19776;SDS011;10047;42.490;26.012;2023-08-06T08:16:01;13.90;;;10.23;;
19776;SDS011;10047;42.490;26.012;2023-08-06T08:18:27;10.85;;;9.75;;
19776;SDS011;10047;42.490;26.012;2023-08-06T08:20:53;11.40;;;9.80;;
19776;SDS011;10047;42.490;26.012;2023-08-06T08:23:18;10.52;;;9.50;;
19776;SDS011;10047;42.490;26.012;2023-08-06T08:25:44;12.90;;;9.88;;
19776;SDS011;10047;42.490;26.012;2023-08-06T08:28:09;13.15;;;10.27;;
19776;SDS011;10047;42.490;26.012;2023-08-06T08:30:34;20.45;;;10.52;;
19776;SDS011;10047;42.490;26.012;2023-08-06T08:33:00;24.05;;;12.40;;
19776;SDS011;10047;42.490;26.012;2023-08-06T08:35:25;24.00;;;14.68;;
19776;SDS011;10047;42.490;26.012;2023-08-06T08:37:51;21.52;;;15.35;;
19776;SDS011;10047;42.490;26.012;2023-08-06T08:40:16;21.73;;;16.73;;
19776;SDS011;10047;42.490;26.012;2023-08-06T08:42:42;29.75;;;18.40;;
19776;SDS011;10047;42.490;26.012;2023-08-06T08:45:17;25.30;;;18.13;;
19776;SDS011;10047;42.490;26.012;2023-08-06T08:47:47;29.65;;;19.75;;
19776;SDS011;10047;42.490;26.012;2023-08-06T08:50:12;28.10;;;18.33;;
19776;SDS011;10047;42.490;26.012;2023-08-06T08:52:39;21.30;;;15.43;;
19776;SDS011;10047;42.490;26.012;2023-08-06T08:55:08;17.10;;;13.43;;
19776;SDS011;10047;42.490;26.012;2023-08-06T08:57:33;20.23;;;15.10;;
19776;SDS011;10047;42.490;26.012;2023-08-06T08:59:59;19.67;;;16.63;;
19776;SDS011;10047;42.490;26.012;2023-08-06T09:02:25;19.20;;;16.45;;
19776;SDS011;10047;42.490;26.012;2023-08-06T09:04:55;11.95;;;10.65;;
19776;SDS011;10047;42.490;26.012;2023-08-06T09:07:24;12.07;;;9.10;;
19776;SDS011;10047;42.490;26.012;2023-08-06T09:09:51;15.40;;;9.18;;
19776;SDS011;10047;42.490;26.012;2023-08-06T09:12:17;7.05;;;6.35;;
19776;SDS011;10047;42.490;26.012;2023-08-06T09:14:43;7.25;;;6.10;;
19776;SDS011;10047;42.490;26.012;2023-08-06T09:17:09;10.65;;;7.25;;
19776;SDS011;10047;42.490;26.012;2023-08-06T09:19:41;8.68;;;7.85;;
19776;SDS011;10047;42.490;26.012;2023-08-06T09:22:11;9.00;;;8.10;;
19776;SDS011;10047;42.490;26.012;2023-08-06T09:24:39;9.65;;;8.63;;
19776;SDS011;10047;42.490;26.012;2023-08-06T09:27:14;8.13;;;6.95;;
19776;SDS011;10047;42.490;26.012;2023-08-06T09:29:40;8.20;;;6.35;;
19776;SDS011;10047;42.490;26.012;2023-08-06T09:32:07;8.57;;;7.03;;
19776;SDS011;10047;42.490;26.012;2023-08-06T09:34:32;7.40;;;6.70;;
19776;SDS011;10047;42.490;26.012;2023-08-06T09:36:57;7.65;;;6.90;;
19776;SDS011;10047;42.490;26.012;2023-08-06T09:39:26;7.13;;;6.30;;
19776;SDS011;10047;42.490;26.012;2023-08-06T09:41:57;7.20;;;5.85;;
19776;SDS011;10047;42.490;26.012;2023-08-06T09:44:24;7.45;;;6.18;;
19776;SDS011;10047;42.490;26.012;2023-08-06T09:46:51;7.03;;;5.95;;
19776;SDS011;10047;42.490;26.012;2023-08-06T09:49:18;8.13;;;7.10;;
19776;SDS011;10047;42.490;26.012;2023-08-06T09:51:49;6.78;;;6.03;;
19776;SDS011;10047;42.490;26.012;2023-08-06T09:54:17;6.15;;;5.55;;
19776;SDS011;10047;42.490;26.012;2023-08-06T09:56:44;6.75;;;5.57;;
19776;SDS011;10047;42.490;26.012;2023-08-06T09:59:09;6.55;;;5.78;;
19776;SDS011;10047;42.490;26.012;2023-08-06T10:01:36;7.72;;;6.50;;
19776;SDS011;10047;42.490;26.012;2023-08-06T10:04:03;10.45;;;9.43;;
19776;SDS011;10047;42.490;26.012;2023-08-06T10:06:29;13.40;;;11.07;;
19776;SDS011;10047;42.490;26.012;2023-08-06T10:08:58;14.10;;;12.43;;
19776;SDS011;10047;42.490;26.012;2023-08-06T10:11:24;16.13;;;13.30;;
19776;SDS011;10047;42.490;26.012;2023-08-06T10:13:52;14.88;;;13.25;;
19776;SDS011;10047;42.490;26.012;2023-08-06T10:16:20;14.55;;;8.25;;
19776;SDS011;10047;42.490;26.012;2023-08-06T10:18:47;8.93;;;5.88;;
19776;SDS011;10047;42.490;26.012;2023-08-06T10:21:14;8.40;;;4.45;;
19776;SDS011;10047;42.490;26.012;2023-08-06T10:23:41;9.55;;;5.32;;
19776;SDS011;10047;42.490;26.012;2023-08-06T10:26:06;7.07;;;4.47;;
19776;SDS011;10047;42.490;26.012;2023-08-06T10:28:38;7.82;;;4.95;;
19776;SDS011;10047;42.490;26.012;2023-08-06T10:31:04;6.97;;;4.18;;
19776;SDS011;10047;42.490;26.012;2023-08-06T10:33:43;7.97;;;3.33;;
19776;SDS011;10047;42.490;26.012;2023-08-06T10:36:10;6.90;;;3.75;;
19776;SDS011;10047;42.490;26.012;2023-08-06T10:38:36;6.18;;;3.80;;
19776;SDS011;10047;42.490;26.012;2023-08-06T10:41:16;4.55;;;3.47;;
19776;SDS011;10047;42.490;26.012;2023-08-06T10:43:47;7.10;;;3.50;;
19776;SDS011;10047;42.490;26.012;2023-08-06T10:46:23;5.43;;;3.92;;
19776;SDS011;10047;42.490;26.012;2023-08-06T10:48:52;6.45;;;3.50;;
19776;SDS011;10047;42.490;26.012;2023-08-06T10:51:18;6.00;;;3.50;;
19776;SDS011;10047;42.490;26.012;2023-08-06T10:53:44;5.97;;;3.17;;
19776;SDS011;10047;42.490;26.012;2023-08-06T10:58:40;5.93;;;3.70;;
19776;SDS011;10047;42.490;26.012;2023-08-06T11:01:06;4.75;;;3.75;;
19776;SDS011;10047;42.490;26.012;2023-08-06T11:03:32;4.25;;;3.55;;
19776;SDS011;10047;42.490;26.012;2023-08-06T11:05:59;4.95;;;3.67;;
19776;SDS011;10047;42.490;26.012;2023-08-06T11:08:27;6.90;;;3.95;;
19776;SDS011;10047;42.490;26.012;2023-08-06T11:10:54;6.13;;;3.92;;
19776;SDS011;10047;42.490;26.012;2023-08-06T11:13:20;7.28;;;4.50;;
19776;SDS011;10047;42.490;26.012;2023-08-06T11:15:46;4.75;;;3.53;;
19776;SDS011;10047;42.490;26.012;2023-08-06T11:18:12;5.50;;;3.38;;
19776;SDS011;10047;42.490;26.012;2023-08-06T11:20:39;5.55;;;3.40;;
19776;SDS011;10047;42.490;26.012;2023-08-06T11:23:05;4.60;;;3.15;;
19776;SDS011;10047;42.490;26.012;2023-08-06T11:25:31;4.00;;;3.35;;
19776;SDS011;10047;42.490;26.012;2023-08-06T11:28:01;5.50;;;3.78;;
19776;SDS011;10047;42.490;26.012;2023-08-06T11:30:26;4.50;;;3.55;;
19776;SDS011;10047;42.490;26.012;2023-08-06T11:32:52;5.60;;;3.78;;
19776;SDS011;10047;42.490;26.012;2023-08-06T11:35:17;4.22;;;3.80;;
19776;SDS011;10047;42.490;26.012;2023-08-06T11:37:43;4.85;;;2.00;;
19776;SDS011;10047;42.490;26.012;2023-08-06T11:40:10;3.22;;;1.65;;
19776;SDS011;10047;42.490;26.012;2023-08-06T11:42:37;5.65;;;1.92;;
19776;SDS011;10047;42.490;26.012;2023-08-06T11:45:03;3.30;;;2.60;;
19776;SDS011;10047;42.490;26.012;2023-08-06T11:47:29;4.05;;;2.72;;
19776;SDS011;10047;42.490;26.012;2023-08-06T11:49:55;2.80;;;2.53;;
19776;SDS011;10047;42.490;26.012;2023-08-06T11:52:21;3.70;;;2.35;;
19776;SDS011;10047;42.490;26.012;2023-08-06T11:55:07;2.72;;;1.95;;
19776;SDS011;10047;42.490;26.012;2023-08-06T11:57:37;2.90;;;2.05;;
19776;SDS011;10047;42.490;26.012;2023-08-06T12:00:05;2.78;;;2.10;;
19776;SDS011;10047;42.490;26.012;2023-08-06T12:02:35;2.85;;;2.28;;
19776;SDS011;10047;42.490;26.012;2023-08-06T12:07:32;4.55;;;2.58;;
19776;SDS011;10047;42.490;26.012;2023-08-06T12:10:01;4.35;;;2.65;;
19776;SDS011;10047;42.490;26.012;2023-08-06T12:12:27;4.13;;;2.83;;
19776;SDS011;10047;42.490;26.012;2023-08-06T12:14:54;4.38;;;2.92;;
19776;SDS011;10047;42.490;26.012;2023-08-06T12:17:19;4.57;;;2.70;;
19776;SDS011;10047;42.490;26.012;2023-08-06T12:19:45;3.63;;;2.80;;
19776;SDS011;10047;42.490;26.012;2023-08-06T12:22:14;6.20;;;2.70;;
19776;SDS011;10047;42.490;26.012;2023-08-06T12:24:41;3.72;;;2.78;;
19776;SDS011;10047;42.490;26.012;2023-08-06T12:27:09;4.75;;;2.80;;
19776;SDS011;10047;42.490;26.012;2023-08-06T12:32:03;2.60;;;2.40;;
19776;SDS011;10047;42.490;26.012;2023-08-06T12:34:28;3.55;;;2.60;;
19776;SDS011;10047;42.490;26.012;2023-08-06T12:36:54;4.07;;;2.80;;
19776;SDS011;10047;42.490;26.012;2023-08-06T12:39:19;2.80;;;2.35;;
19776;SDS011;10047;42.490;26.012;2023-08-06T12:41:45;3.38;;;2.30;;
19776;SDS011;10047;42.490;26.012;2023-08-06T12:44:11;3.28;;;2.60;;
19776;SDS011;10047;42.490;26.012;2023-08-06T12:46:37;3.45;;;2.60;;
19776;SDS011;10047;42.490;26.012;2023-08-06T12:49:02;2.53;;;2.20;;
19776;SDS011;10047;42.490;26.012;2023-08-06T12:51:28;2.80;;;2.45;;
19776;SDS011;10047;42.490;26.012;2023-08-06T12:53:54;3.42;;;2.05;;
19776;SDS011;10047;42.490;26.012;2023-08-06T12:56:19;4.95;;;2.40;;
19776;SDS011;10047;42.490;26.012;2023-08-06T12:58:45;3.08;;;2.20;;
19776;SDS011;10047;42.490;26.012;2023-08-06T13:01:10;2.42;;;2.08;;
19776;SDS011;10047;42.490;26.012;2023-08-06T13:03:35;2.88;;;2.17;;
19776;SDS011;10047;42.490;26.012;2023-08-06T13:06:01;2.13;;;1.80;;
19776;SDS011;10047;42.490;26.012;2023-08-06T13:08:26;2.10;;;1.13;;
19776;SDS011;10047;42.490;26.012;2023-08-06T13:10:52;2.65;;;1.30;;
19776;SDS011;10047;42.490;26.012;2023-08-06T13:13:17;1.73;;;1.10;;
19776;SDS011;10047;42.490;26.012;2023-08-06T13:15:43;1.60;;;1.48;;
19776;SDS011;10047;42.490;26.012;2023-08-06T13:18:09;1.40;;;1.10;;
19776;SDS011;10047;42.490;26.012;2023-08-06T13:20:37;2.20;;;1.20;;
19776;SDS011;10047;42.490;26.012;2023-08-06T13:23:05;4.27;;;1.40;;
19776;SDS011;10047;42.490;26.012;2023-08-06T13:25:30;1.77;;;1.23;;
19776;SDS011;10047;42.490;26.012;2023-08-06T13:27:55;2.40;;;1.50;;
19776;SDS011;10047;42.490;26.012;2023-08-06T13:30:21;1.50;;;1.05;;
19776;SDS011;10047;42.490;26.012;2023-08-06T13:32:48;1.63;;;1.13;;
19776;SDS011;10047;42.490;26.012;2023-08-06T13:35:13;1.60;;;1.20;;
19776;SDS011;10047;42.490;26.012;2023-08-06T13:37:39;1.58;;;1.17;;
19776;SDS011;10047;42.490;26.012;2023-08-06T13:40:04;1.55;;;1.10;;
19776;SDS011;10047;42.490;26.012;2023-08-06T13:42:31;1.98;;;1.13;;
19776;SDS011;10047;42.490;26.012;2023-08-06T13:44:57;1.80;;;1.35;;
19776;SDS011;10047;42.490;26.012;2023-08-06T13:47:27;1.90;;;1.50;;
19776;SDS011;10047;42.490;26.012;2023-08-06T13:49:53;1.40;;;1.25;;
19776;SDS011;10047;42.490;26.012;2023-08-06T13:52:18;2.45;;;1.50;;
19776;SDS011;10047;42.490;26.012;2023-08-06T13:54:44;1.92;;;1.50;;
19776;SDS011;10047;42.490;26.012;2023-08-06T13:57:09;1.60;;;1.50;;
19776;SDS011;10047;42.490;26.012;2023-08-06T13:59:34;1.60;;;1.48;;
19776;SDS011;10047;42.490;26.012;2023-08-06T14:02:00;1.88;;;1.42;;
19776;SDS011;10047;42.490;26.012;2023-08-06T14:04:25;1.70;;;1.60;;
19776;SDS011;10047;42.490;26.012;2023-08-06T14:06:51;3.17;;;1.75;;
19776;SDS011;10047;42.490;26.012;2023-08-06T14:09:16;2.10;;;1.50;;
19776;SDS011;10047;42.490;26.012;2023-08-06T14:11:43;2.13;;;1.48;;
19776;SDS011;10047;42.490;26.012;2023-08-06T14:14:10;1.70;;;1.60;;
19776;SDS011;10047;42.490;26.012;2023-08-06T14:16:36;1.60;;;1.50;;
19776;SDS011;10047;42.490;26.012;2023-08-06T14:19:02;2.83;;;1.80;;
19776;SDS011;10047;42.490;26.012;2023-08-06T14:21:27;2.72;;;1.70;;
19776;SDS011;10047;42.490;26.012;2023-08-06T14:23:53;2.60;;;1.80;;
19776;SDS011;10047;42.490;26.012;2023-08-06T14:26:18;3.15;;;1.70;;
19776;SDS011;10047;42.490;26.012;2023-08-06T14:28:43;2.45;;;1.50;;